Map

Track Data

SID SEASON NUMBER BASIN SUBBASIN NAME ISO_TIME NATURE LAT LON WMO_WIND WMO_PRES WMO_AGENCY TRACK_TYPE DIST2LAND LANDFALL IFLAG USA_AGENCY USA_ATCF_ID USA_LAT USA_LON USA_RECORD USA_STATUS USA_WIND USA_PRES USA_SSHS USA_R34_NE USA_R34_SE USA_R34_SW USA_R34_NW USA_R50_NE USA_R50_SE USA_R50_SW USA_R50_NW USA_R64_NE USA_R64_SE USA_R64_SW USA_R64_NW USA_POCI USA_ROCI USA_RMW USA_EYE TOKYO_LAT TOKYO_LON TOKYO_GRADE TOKYO_WIND TOKYO_PRES TOKYO_R50_DIR TOKYO_R50_LONG TOKYO_R50_SHORT TOKYO_R30_DIR TOKYO_R30_LONG TOKYO_R30_SHORT TOKYO_LAND CMA_LAT CMA_LON CMA_CAT CMA_WIND CMA_PRES HKO_LAT HKO_LON HKO_CAT HKO_WIND HKO_PRES NEWDELHI_LAT NEWDELHI_LON NEWDELHI_GRADE NEWDELHI_WIND NEWDELHI_PRES NEWDELHI_CI NEWDELHI_DP NEWDELHI_POCI REUNION_LAT REUNION_LON REUNION_TYPE REUNION_WIND REUNION_PRES REUNION_TNUM REUNION_CI REUNION_RMW REUNION_R34_NE REUNION_R34_SE REUNION_R34_SW REUNION_R34_NW REUNION_R50_NE REUNION_R50_SE REUNION_R50_SW REUNION_R50_NW REUNION_R64_NE REUNION_R64_SE REUNION_R64_SW REUNION_R64_NW BOM_LAT BOM_LON BOM_TYPE BOM_WIND BOM_PRES BOM_TNUM BOM_CI BOM_RMW BOM_R34_NE BOM_R34_SE BOM_R34_SW BOM_R34_NW BOM_R50_NE BOM_R50_SE BOM_R50_SW BOM_R50_NW BOM_R64_NE BOM_R64_SE BOM_R64_SW BOM_R64_NW BOM_ROCI BOM_POCI BOM_EYE BOM_POS_METHOD BOM_PRES_METHOD NADI_LAT NADI_LON NADI_CAT NADI_WIND NADI_PRES WELLINGTON_LAT WELLINGTON_LON WELLINGTON_WIND WELLINGTON_PRES DS824_LAT DS824_LON DS824_STAGE DS824_WIND DS824_PRES TD9636_LAT TD9636_LON TD9636_STAGE TD9636_WIND TD9636_PRES TD9635_LAT TD9635_LON TD9635_WIND TD9635_PRES TD9635_ROCI NEUMANN_LAT NEUMANN_LON NEUMANN_CLASS NEUMANN_WIND NEUMANN_PRES MLC_LAT MLC_LON MLC_CLASS MLC_WIND MLC_PRES USA_GUST BOM_GUST BOM_GUST_PER REUNION_GUST REUNION_GUST_PER USA_SEAHGT USA_SEARAD_NE USA_SEARAD_SE USA_SEARAD_SW USA_SEARAD_NW STORM_SPEED STORM_DIR
1959204N28269 1959 51 NA GM DEBRA 1959-07-22 18:00:00 TS 27.5000 -91.2000 25 hurdat_atl main 181 181 O_____________ hurdat_atl AL051959 27.5000 -91.2000 TD 25 -1 4 278
1959204N28269 1959 51 NA GM DEBRA 1959-07-22 21:00:00 TS 27.5301 -91.4401 main 185 180 P_____________ AL051959 27.5301 -91.4401 TD 25 -1 5 283
1959204N28269 1959 51 NA GM DEBRA 1959-07-23 00:00:00 TS 27.6000 -91.7000 25 hurdat_atl main 184 179 O_____________ hurdat_atl AL051959 27.6000 -91.7000 TD 25 -1 5 293
1959204N28269 1959 51 NA GM DEBRA 1959-07-23 03:00:00 TS 27.7350 -91.9924 main 189 178 P_____________ AL051959 27.7350 -91.9924 TD 27 -1 6 300
1959204N28269 1959 51 NA GM DEBRA 1959-07-23 06:00:00 TS 27.9000 -92.3000 30 hurdat_atl main 178 167 O_____________ hurdat_atl AL051959 27.9000 -92.3000 TD 30 -1 6 300
1959204N28269 1959 51 NA GM DEBRA 1959-07-23 09:00:00 TS 28.0499 -92.6001 main 169 153 P_____________ AL051959 28.0499 -92.6001 TD 30 -1 6 300
1959204N28269 1959 51 NA GM DEBRA 1959-07-23 12:00:00 TS 28.2000 -92.9000 30 hurdat_atl main 156 146 O_____________ hurdat_atl AL051959 28.2000 -92.9000 TD 30 -1 6 301
1959204N28269 1959 51 NA GM DEBRA 1959-07-23 15:00:00 TS 28.3724 -93.1999 main 146 137 P_____________ AL051959 28.3724 -93.1999 TD 30 -1 6 300
1959204N28269 1959 51 NA GM DEBRA 1959-07-23 18:00:00 TS 28.5000 -93.5000 30 hurdat_atl main 137 133 O_____________ hurdat_atl AL051959 28.5000 -93.5000 TD 30 -1 6 287
1959204N28269 1959 51 NA GM DEBRA 1959-07-23 21:00:00 TS 28.5375 -93.8076 main 133 118 P_____________ AL051959 28.5375 -93.8076 TD 32 -1 5 270
1959204N28269 1959 51 NA GM DEBRA 1959-07-24 00:00:00 TS 28.5000 -94.1000 35 hurdat_atl main 118 102 O_____________ hurdat_atl AL051959 28.5000 -94.1000 TS 35 0 5 254
1959204N28269 1959 51 NA GM DEBRA 1959-07-24 03:00:00 TS 28.4000 -94.3652 main 102 95 P_____________ AL051959 28.4000 -94.3652 TS 42 0 5 246
1959204N28269 1959 51 NA GM DEBRA 1959-07-24 06:00:00 TS 28.3000 -94.6000 50 hurdat_atl main 97 87 O_____________ hurdat_atl AL051959 28.3000 -94.6000 TS 50 0 4 253
1959204N28269 1959 51 NA GM DEBRA 1959-07-24 09:00:00 TS 28.2775 -94.8224 main 87 77 P_____________ AL051959 28.2775 -94.8224 TS 57 0 4 270
1959204N28269 1959 51 NA GM DEBRA 1959-07-24 12:00:00 TS 28.3000 -95.0000 65 hurdat_atl main 77 73 O_____________ hurdat_atl AL051959 28.3000 -95.0000 HU 65 1 3 280
1959204N28269 1959 51 NA GM DEBRA 1959-07-24 15:00:00 TS 28.3275 -95.1300 main 73 59 P_____________ AL051959 28.3275 -95.1300 HU 65 1 2 300
1959204N28269 1959 51 NA GM DEBRA 1959-07-24 18:00:00 TS 28.4000 -95.2000 65 985 hurdat_atl main 59 48 O_____________ hurdat_atl AL051959 28.4000 -95.2000 HU 65 985 1 2 337
1959204N28269 1959 51 NA GM DEBRA 1959-07-24 21:00:00 TS 28.5205 -95.2147 main 48 29 P_____________ AL051959 28.5205 -95.2147 HU 67 984 1 3 0
1959204N28269 1959 51 NA GM DEBRA 1959-07-25 00:00:00 TS 28.7000 -95.2000 70 984 hurdat_atl main 29 11 O_____________ hurdat_atl AL051959 28.7000 -95.2000 HU 70 984 1 4 4
1959204N28269 1959 51 NA GM DEBRA 1959-07-25 03:00:00 TS 28.9192 -95.2000 main 11 0 P_____________ AL051959 28.9192 -95.2000 HU 72 981 1 5 0
1959204N28269 1959 51 NA NA DEBRA 1959-07-25 05:00:00 TS 29.1000 -95.2000 75 980 hurdat_atl main 0 0 O_____________ hurdat_atl AL051959 29.1000 -95.2000 L HU 75 980 1 6 0
1959204N28269 1959 51 NA NA DEBRA 1959-07-25 06:00:00 TS 29.2000 -95.2000 75 980 hurdat_atl main 0 0 O_____________ hurdat_atl AL051959 29.2000 -95.2000 HU 75 980 1 4 10
1959204N28269 1959 51 NA NA DEBRA 1959-07-25 09:00:00 TS 29.3785 -95.1575 main 0 0 P_____________ AL051959 29.3785 -95.1575 HU 65 983 1 3 16
1959204N28269 1959 51 NA NA DEBRA 1959-07-25 12:00:00 TS 29.5000 -95.1000 55 986 hurdat_atl main 0 0 O_____________ hurdat_atl AL051959 29.5000 -95.1000 TS 55 986 0 4 10
1959204N28269 1959 51 NA NA DEBRA 1959-07-25 15:00:00 TS 29.7275 -95.0925 main 0 0 P_____________ AL051959 29.7275 -95.0925 TS 52 0 5 2
1959204N28269 1959 51 NA NA DEBRA 1959-07-25 18:00:00 TS 30.0000 -95.1000 50 hurdat_atl main 0 0 O_____________ hurdat_atl AL051959 30.0000 -95.1000 TS 50 0 6 357
1959204N28269 1959 51 NA NA DEBRA 1959-07-25 21:00:00 TS 30.2850 -95.0926 main 0 0 P_____________ AL051959 30.2850 -95.0926 TS 45 0 6 1
1959204N28269 1959 51 NA NA DEBRA 1959-07-26 00:00:00 TS 30.6000 -95.1000 40 hurdat_atl main 0 0 O_____________ hurdat_atl AL051959 30.6000 -95.1000 TS 40 0 7 356
1959204N28269 1959 51 NA NA DEBRA 1959-07-26 03:00:00 TS 30.9350 -95.1351 main 0 0 P_____________ AL051959 30.9350 -95.1351 TS 35 0 7 353
1959204N28269 1959 51 NA NA DEBRA 1959-07-26 06:00:00 TS 31.3000 -95.2000 30 hurdat_atl main 0 0 O_____________ hurdat_atl AL051959 31.3000 -95.2000 TD 30 -1 8 350
1959204N28269 1959 51 NA NA DEBRA 1959-07-26 09:00:00 TS 31.6775 -95.2925 main 0 0 P_____________ AL051959 31.6775 -95.2925 TD 30 -1 8 348
1959204N28269 1959 51 NA NA DEBRA 1959-07-26 12:00:00 TS 32.1000 -95.4000 30 hurdat_atl main 0 0 O_____________ hurdat_atl AL051959 32.1000 -95.4000 TD 30 -1 9 350
1959204N28269 1959 51 NA NA DEBRA 1959-07-26 15:00:00 TS 32.5849 -95.4706 main 0 0 P_____________ AL051959 32.5849 -95.4706 TD 27 -1 10 350
1959204N28269 1959 51 NA NA DEBRA 1959-07-26 18:00:00 TS 33.1000 -95.6000 25 hurdat_atl main 0 0 O_____________ hurdat_atl AL051959 33.1000 -95.6000 TD 25 -1 11 343
1959204N28269 1959 51 NA NA DEBRA 1959-07-26 21:00:00 TS 33.6074 -95.8476 main 0 0 P_____________ AL051959 33.6074 -95.8476 TD 25 -1 11 333
1959204N28269 1959 51 NA NA DEBRA 1959-07-27 00:00:00 TS 34.1000 -96.2000 25 hurdat_atl main 0 0 O_____________ hurdat_atl AL051959 34.1000 -96.2000 TD 25 -1 12 326
1959204N28269 1959 51 NA NA DEBRA 1959-07-27 03:00:00 TS 34.5650 -96.6276 main 0 0 P_____________ AL051959 34.5650 -96.6276 TD 25 -1 12 321
1959204N28269 1959 51 NA NA DEBRA 1959-07-27 06:00:00 TS 35.0000 -97.1000 25 hurdat_atl main 0 0 O_____________ hurdat_atl AL051959 35.0000 -97.1000 TD 25 -1 12 319
1959204N28269 1959 51 NA NA DEBRA 1959-07-27 09:00:00 TS 35.4374 -97.5575 main 0 0 P_____________ AL051959 35.4374 -97.5575 TD 25 -1 11 318
1959204N28269 1959 51 NA NA DEBRA 1959-07-27 12:00:00 TS 35.8000 -98.0000 25 hurdat_atl main 0 0 O_____________ hurdat_atl AL051959 35.8000 -98.0000 TD 25 -1 9 311
1959204N28269 1959 51 NA NA DEBRA 1959-07-27 15:00:00 TS 36.0377 -98.4100 main 0 0 P_____________ AL051959 36.0377 -98.4100 TD 25 -1 8 302
1959204N28269 1959 51 NA NA DEBRA 1959-07-27 18:00:00 TS 36.2000 -98.8000 25 hurdat_atl main 0 O_____________ hurdat_atl AL051959 36.2000 -98.8000 TD 25 -1 7 297

About IBTrACS Database

This database is a web-friendly format of International Best Track Archive for Climate Stewardship (IBTrACS), a global best track data archive curated by NOAA dating back to 1842.

Updated: 2021-12-03